createdAt,value
2019-03-18T00:01:54.823Z,0.90
2019-03-18T00:04:24.987Z,1.07
2019-03-18T00:06:54.865Z,0.80
2019-03-18T00:09:25.071Z,0.70
2019-03-18T00:11:54.580Z,1.00
2019-03-18T00:14:24.653Z,0.90
2019-03-18T00:16:54.350Z,0.80
2019-03-18T00:19:24.137Z,1.27
2019-03-18T00:21:53.850Z,0.80
2019-03-18T00:24:23.688Z,0.90
2019-03-18T00:26:53.280Z,1.10
2019-03-18T00:29:23.164Z,1.10
2019-03-18T00:31:53.204Z,0.87
2019-03-18T00:34:23.027Z,0.70
2019-03-18T00:36:52.582Z,0.90
2019-03-18T00:39:22.672Z,1.13
2019-03-18T00:41:52.212Z,0.93
2019-03-18T00:44:21.817Z,0.80
2019-03-18T00:46:51.699Z,0.73
2019-03-18T00:49:21.369Z,0.70
2019-03-18T00:51:50.946Z,0.63
2019-03-18T00:54:20.806Z,1.13
2019-03-18T00:56:50.383Z,1.20
2019-03-18T00:59:20.724Z,0.83
2019-03-18T01:01:50.286Z,0.97
2019-03-18T01:04:20.475Z,0.87
2019-03-18T01:06:50.024Z,1.03
2019-03-18T01:09:20.063Z,0.90
2019-03-18T01:11:49.628Z,0.90
2019-03-18T01:14:19.692Z,0.90
2019-03-18T01:16:49.310Z,0.83
2019-03-18T01:19:19.187Z,1.10
2019-03-18T01:21:48.703Z,1.67
2019-03-18T01:24:18.447Z,0.83
2019-03-18T01:26:48.551Z,1.33
2019-03-18T01:29:18.370Z,1.10
2019-03-18T01:31:48.106Z,0.83
2019-03-18T01:34:18.426Z,1.10
2019-03-18T01:36:48.094Z,0.80
2019-03-18T01:39:18.155Z,0.97
2019-03-18T01:41:47.693Z,1.20
2019-03-18T01:44:18.051Z,0.90
2019-03-18T01:46:47.682Z,1.20
2019-03-18T01:49:17.686Z,2.37
2019-03-18T01:51:47.306Z,1.03
2019-03-18T01:54:17.339Z,1.00
2019-03-18T01:56:46.931Z,1.17
2019-03-18T01:59:16.755Z,1.30
2019-03-18T02:01:46.352Z,0.93
2019-03-18T02:04:16.035Z,0.73
2019-03-18T02:06:45.654Z,0.80
2019-03-18T02:09:15.394Z,0.77
2019-03-18T02:11:44.999Z,0.90
2019-03-18T02:14:14.953Z,1.03
2019-03-18T02:16:44.483Z,1.03
2019-03-18T02:19:15.046Z,0.93
2019-03-18T02:21:44.625Z,1.10
2019-03-18T02:24:14.883Z,1.27
2019-03-18T02:26:44.526Z,1.07
2019-03-18T02:29:14.915Z,0.97
2019-03-18T02:31:44.627Z,1.10
2019-03-18T02:34:14.315Z,1.37
2019-03-18T02:36:44.196Z,1.10
2019-03-18T02:39:14.303Z,1.00
2019-03-18T02:41:43.864Z,1.00
2019-03-18T02:44:14.263Z,0.83
2019-03-18T02:46:43.872Z,1.03
2019-03-18T02:49:13.603Z,1.40
2019-03-18T02:51:43.279Z,1.30
2019-03-18T02:54:13.424Z,1.03
2019-03-18T02:56:42.982Z,1.37
2019-03-18T02:59:12.635Z,1.10
2019-03-18T03:01:42.997Z,1.07
2019-03-18T03:04:13.122Z,0.90
2019-03-18T03:22:13.114Z,1.30
2019-03-18T03:24:43.332Z,1.10
2019-03-18T03:27:12.988Z,1.07
2019-03-18T03:29:43.285Z,1.07
2019-03-18T03:32:13.364Z,1.73
2019-03-18T03:34:42.970Z,1.30
2019-03-18T03:37:12.963Z,1.30
2019-03-18T03:39:42.703Z,1.53
2019-03-18T03:42:12.608Z,1.33
2019-03-18T03:44:42.373Z,1.60
2019-03-18T03:47:11.902Z,1.80
2019-03-18T03:49:41.770Z,1.40
2019-03-18T03:52:11.682Z,1.03
2019-03-18T03:54:41.367Z,1.47
2019-03-18T03:57:11.046Z,1.40
2019-03-18T03:59:41.323Z,1.70
2019-03-18T04:02:11.013Z,1.63
2019-03-18T04:04:40.865Z,1.47
2019-03-18T04:07:10.748Z,1.60
2019-03-18T04:09:40.479Z,1.70
2019-03-18T04:12:10.174Z,1.40
2019-03-18T04:14:40.477Z,1.50
2019-03-18T04:17:10.534Z,1.60
2019-03-18T04:19:41.032Z,1.80
2019-03-18T04:22:10.646Z,1.47
2019-03-18T04:24:40.322Z,1.60
2019-03-18T04:27:09.846Z,1.30
2019-03-18T04:29:39.630Z,1.83
2019-03-18T04:32:09.495Z,1.60
2019-03-18T04:34:39.209Z,1.80
2019-03-18T04:37:08.783Z,1.63
2019-03-18T04:39:38.618Z,1.80
2019-03-18T04:42:08.181Z,1.80
2019-03-18T04:44:37.891Z,2.00
2019-03-18T04:47:14.383Z,1.43
2019-03-18T04:49:39.216Z,2.00
2019-03-18T04:52:08.880Z,2.00
2019-03-18T04:54:38.630Z,2.13
2019-03-18T04:57:08.211Z,2.30
2019-03-18T04:59:38.418Z,1.77
2019-03-18T05:02:08.192Z,1.77
2019-03-18T05:04:38.129Z,1.27
2019-03-18T05:07:07.714Z,1.60
2019-03-18T05:09:37.479Z,1.57
2019-03-18T05:12:07.622Z,1.73
2019-03-18T05:14:37.199Z,1.60
2019-03-18T05:17:06.853Z,1.60
2019-03-18T05:19:36.967Z,1.73
2019-03-18T05:22:06.583Z,1.97
2019-03-18T05:24:36.286Z,1.80
2019-03-18T05:27:05.910Z,1.90
2019-03-18T05:29:35.745Z,2.10
2019-03-18T05:32:05.276Z,1.90
2019-03-18T05:34:35.126Z,2.10
2019-03-18T05:37:05.756Z,1.90
2019-03-18T05:39:35.464Z,2.03
2019-03-18T05:42:05.278Z,1.60
2019-03-18T05:44:34.982Z,1.90
2019-03-18T05:47:04.696Z,2.00
2019-03-18T05:49:34.613Z,2.40
2019-03-18T05:52:04.496Z,2.17
2019-03-18T05:54:34.746Z,2.67
2019-03-18T05:57:04.365Z,1.80
2019-03-18T05:59:34.447Z,2.63
2019-03-18T06:02:04.915Z,1.80
2019-03-18T06:04:35.018Z,2.70
2019-03-18T06:07:04.823Z,2.50
2019-03-18T06:09:35.276Z,2.00
2019-03-18T06:12:05.355Z,2.77
2019-03-18T06:14:35.007Z,2.40
2019-03-18T06:17:04.663Z,1.70
2019-03-18T06:19:35.095Z,2.87
2019-03-18T06:22:04.960Z,2.40
2019-03-18T06:24:34.590Z,2.40
2019-03-18T06:27:04.300Z,2.40
2019-03-18T06:29:34.170Z,2.60
2019-03-18T06:32:03.988Z,2.60
2019-03-18T06:34:33.676Z,2.40
2019-03-18T06:37:03.508Z,2.67
2019-03-18T06:39:33.527Z,3.40
2019-03-18T06:42:03.556Z,2.60
2019-03-18T06:44:33.724Z,2.80
2019-03-18T06:47:03.864Z,2.27
2019-03-18T06:49:33.716Z,2.50
2019-03-18T06:52:03.695Z,2.97
2019-03-18T06:54:34.409Z,2.27
2019-03-18T06:57:04.548Z,2.93
2019-03-18T06:59:35.000Z,1.80
2019-03-18T07:02:04.704Z,1.80
2019-03-18T07:04:34.522Z,2.40
2019-03-18T07:07:04.217Z,2.60
2019-03-18T07:09:34.764Z,3.57
2019-03-18T07:12:04.729Z,2.20
2019-03-18T07:14:34.578Z,2.73
2019-03-18T07:17:04.925Z,2.37
2019-03-18T07:19:35.351Z,2.27
2019-03-18T07:22:05.606Z,2.37
2019-03-18T07:24:35.828Z,2.90
2019-03-18T07:27:05.740Z,2.90
2019-03-18T07:29:35.459Z,2.57
2019-03-18T07:32:05.282Z,2.60
2019-03-18T07:34:35.091Z,1.90
2019-03-18T07:37:05.090Z,2.20
2019-03-18T07:39:35.124Z,2.10
2019-03-18T07:42:05.661Z,2.33
2019-03-18T07:44:35.801Z,2.37
2019-03-18T07:47:07.265Z,3.00
2019-03-18T07:49:37.237Z,1.50
2019-03-18T07:52:07.295Z,2.27
2019-03-18T07:54:36.998Z,2.00
2019-03-18T07:57:06.717Z,2.10
2019-03-18T07:59:36.547Z,2.10
2019-03-18T08:02:06.767Z,1.70
2019-03-18T08:04:37.877Z,2.37
2019-03-18T08:07:08.050Z,1.60
2019-03-18T08:09:38.019Z,2.10
2019-03-18T08:12:07.939Z,3.37
2019-03-18T08:14:38.166Z,2.40
2019-03-18T08:17:07.947Z,2.47
2019-03-18T08:19:37.794Z,2.30
2019-03-18T08:22:07.783Z,2.73
2019-03-18T08:24:37.628Z,2.93
2019-03-18T08:27:07.751Z,2.60
2019-03-18T08:29:38.002Z,1.93
2019-03-18T08:32:07.958Z,2.67
2019-03-18T08:34:38.381Z,2.20
2019-03-18T08:37:08.210Z,2.07
2019-03-18T08:39:38.189Z,1.70
2019-03-18T08:42:08.426Z,2.80
2019-03-18T08:44:40.514Z,2.03
2019-03-18T08:47:10.041Z,2.23
2019-03-18T09:11:48.606Z,3.43
2019-03-18T09:14:18.966Z,2.30
2019-03-18T09:16:48.731Z,2.07
2019-03-18T09:19:18.442Z,2.37
2019-03-18T09:21:48.815Z,7.40
2019-03-18T09:24:18.647Z,2.87
2019-03-18T09:27:01.341Z,2.80
2019-03-18T09:29:20.423Z,2.63
2019-03-18T09:31:50.267Z,2.43
2019-03-18T09:34:19.959Z,2.90
2019-03-18T09:36:50.091Z,2.67
2019-03-18T09:39:20.492Z,2.60
2019-03-18T09:41:50.150Z,2.80
2019-03-18T09:44:20.418Z,2.60
2019-03-18T09:46:50.170Z,2.43
2019-03-18T09:49:21.900Z,1.90
2019-03-18T09:51:51.635Z,2.90
2019-03-18T09:54:22.139Z,3.13
2019-03-18T09:56:51.814Z,2.60
2019-03-18T09:59:21.487Z,2.10
2019-03-18T10:01:51.152Z,1.77
2019-03-18T10:04:21.071Z,2.20
2019-03-18T10:06:50.803Z,1.80
2019-03-18T10:09:21.156Z,1.50
2019-03-18T10:11:50.791Z,1.97
2019-03-18T10:14:20.401Z,1.40
2019-03-18T10:16:50.118Z,1.60
2019-03-18T10:19:19.948Z,1.83
2019-03-18T10:21:50.155Z,1.70
2019-03-18T10:24:21.502Z,1.73
2019-03-18T10:26:51.767Z,1.70
2019-03-18T10:29:21.640Z,1.77
2019-03-18T10:31:51.667Z,2.40
2019-03-18T10:34:22.120Z,1.83
2019-03-18T10:36:51.877Z,1.60
2019-03-18T10:39:21.543Z,1.60
2019-03-18T10:41:51.158Z,1.87
2019-03-18T10:44:21.549Z,2.17
2019-03-18T10:46:51.143Z,1.90
2019-03-18T10:49:21.214Z,1.60
2019-03-18T10:51:50.990Z,1.90
2019-03-18T10:54:30.331Z,2.00
2019-03-18T10:56:52.183Z,1.70
2019-03-18T10:59:22.556Z,1.30
2019-03-18T11:01:52.203Z,1.90
2019-03-18T11:04:22.087Z,2.13
2019-03-18T11:06:52.422Z,2.10
2019-03-18T11:09:22.285Z,1.77
2019-03-18T11:11:51.847Z,2.07
2019-03-18T11:14:22.879Z,1.63
2019-03-18T11:16:52.812Z,2.50
2019-03-18T11:19:23.204Z,1.80
2019-03-18T11:21:52.959Z,1.53
2019-03-18T11:24:23.088Z,1.53
2019-03-18T11:26:55.282Z,1.60
2019-03-18T11:29:28.065Z,3.23
2019-03-18T11:31:57.735Z,2.30
2019-03-18T11:34:27.552Z,1.93
2019-03-18T11:36:57.362Z,2.03
2019-03-18T11:39:27.279Z,1.53
2019-03-18T11:41:56.896Z,2.50
2019-03-18T11:44:26.688Z,1.60
2019-03-18T11:46:56.544Z,2.37
2019-03-18T11:49:26.226Z,1.60
2019-03-18T11:51:56.135Z,1.57
2019-03-18T11:54:25.961Z,2.40
2019-03-18T11:56:55.631Z,2.10
2019-03-18T11:59:25.975Z,2.50
2019-03-18T12:01:56.218Z,2.30
2019-03-18T12:04:26.397Z,1.40
2019-03-18T12:06:56.139Z,1.40
2019-03-18T12:09:25.997Z,2.40
2019-03-18T12:11:55.627Z,2.20
2019-03-18T12:14:26.007Z,1.73
2019-03-18T12:16:56.276Z,1.50
2019-03-18T12:19:26.131Z,1.77
2019-03-18T12:21:56.253Z,1.90
2019-03-18T12:24:26.276Z,2.90
2019-03-18T12:26:55.953Z,1.90
2019-03-18T12:29:26.275Z,1.93
2019-03-18T12:31:56.219Z,2.00
2019-03-18T12:34:26.754Z,2.20
2019-03-18T12:36:56.635Z,2.37
2019-03-18T12:39:26.862Z,2.47
2019-03-18T12:41:56.945Z,2.30
2019-03-18T12:44:26.817Z,3.10
2019-03-18T12:46:56.524Z,2.20
2019-03-18T12:49:26.267Z,1.80
2019-03-18T12:51:56.393Z,1.77
2019-03-18T12:54:26.174Z,2.00
2019-03-18T12:56:55.878Z,2.10
2019-03-18T12:59:26.002Z,2.07
2019-03-18T13:01:55.839Z,1.67
2019-03-18T13:04:26.419Z,1.90
2019-03-18T13:06:56.191Z,2.20
2019-03-18T13:09:26.940Z,2.87
2019-03-18T13:11:57.076Z,2.80
2019-03-18T13:14:27.486Z,1.87
2019-03-18T13:16:57.431Z,2.03
2019-03-18T13:19:27.162Z,1.63
2019-03-18T13:21:56.862Z,2.00
2019-03-18T13:24:26.563Z,1.87
2019-03-18T13:26:58.569Z,1.87
2019-03-18T13:29:28.308Z,2.50
2019-03-18T13:31:58.220Z,1.60
2019-03-18T13:34:28.049Z,2.23
2019-03-18T13:36:57.923Z,1.90
2019-03-18T13:39:30.687Z,1.60
2019-03-18T13:42:00.796Z,1.40
2019-03-18T13:44:30.737Z,2.03
2019-03-18T13:47:00.482Z,1.60
2019-03-18T13:49:30.204Z,2.13
2019-03-18T13:51:59.940Z,2.07
2019-03-18T13:54:32.260Z,1.40
2019-03-18T13:57:01.403Z,1.40
2019-03-18T13:59:31.225Z,1.20
2019-03-18T14:02:01.232Z,1.50
2019-03-18T14:04:31.251Z,1.40
2019-03-18T14:07:01.299Z,2.80
2019-03-18T14:09:31.071Z,2.00
2019-03-18T14:12:01.242Z,1.70
2019-03-18T14:14:31.282Z,3.10
2019-03-18T14:17:01.601Z,1.80
2019-03-18T14:19:31.105Z,2.40
2019-03-18T14:22:01.175Z,1.70
2019-03-18T14:24:31.647Z,1.80
2019-03-18T14:27:01.991Z,2.17
2019-03-18T14:29:32.355Z,2.53
2019-03-18T14:32:02.258Z,1.27
2019-03-18T14:34:31.971Z,2.23
2019-03-18T14:37:01.933Z,2.27
2019-03-18T14:39:31.700Z,2.10
2019-03-18T14:42:01.751Z,1.97
2019-03-18T14:44:31.610Z,1.63
2019-03-18T14:47:01.399Z,1.77
2019-03-18T14:49:33.207Z,1.50
2019-03-18T14:52:03.120Z,1.53
2019-03-18T14:54:33.315Z,1.50
2019-03-18T14:57:03.573Z,2.10
2019-03-18T14:59:33.874Z,2.30
2019-03-18T15:02:04.153Z,2.40
2019-03-18T15:04:34.087Z,1.83
2019-03-18T15:07:03.782Z,2.40
2019-03-18T15:09:34.260Z,2.17
2019-03-18T15:12:04.792Z,2.73
2019-03-18T15:14:34.920Z,1.90
2019-03-18T15:17:05.336Z,2.03
2019-03-18T15:19:35.661Z,2.27
2019-03-18T15:22:06.159Z,2.47
2019-03-18T15:24:36.509Z,1.90
2019-03-18T15:27:06.319Z,2.27
2019-03-18T15:29:36.344Z,2.50
2019-03-18T15:32:06.109Z,2.30
2019-03-18T15:34:35.867Z,2.23
2019-03-18T15:37:05.566Z,2.47
2019-03-18T15:39:35.848Z,2.90
2019-03-18T15:42:05.912Z,2.20
2019-03-18T15:44:36.525Z,2.23
2019-03-18T15:47:06.322Z,2.77
2019-03-18T15:49:35.854Z,2.10
2019-03-18T15:52:10.815Z,2.00
2019-03-18T15:54:38.912Z,2.90
2019-03-18T15:57:08.612Z,2.90
2019-03-18T15:59:38.368Z,2.70
2019-03-18T16:02:08.037Z,3.07
2019-03-18T16:04:38.307Z,3.20
2019-03-18T16:07:08.031Z,2.77
2019-03-18T16:09:38.359Z,2.90
2019-03-18T16:12:08.123Z,3.60
2019-03-18T16:14:38.268Z,2.70
2019-03-18T16:17:08.304Z,2.50
2019-03-18T16:19:39.356Z,3.07
2019-03-18T16:22:09.682Z,2.73
2019-03-18T16:24:39.954Z,3.27
2019-03-18T16:27:10.416Z,3.00
2019-03-18T16:29:40.600Z,3.50
2019-03-18T16:32:11.540Z,3.03
2019-03-18T16:34:43.232Z,2.37
2019-03-18T16:37:13.058Z,2.20
2019-03-18T16:39:43.588Z,3.03
2019-03-18T16:42:13.590Z,2.30
2019-03-18T16:44:44.726Z,2.37
2019-03-18T16:47:14.453Z,2.07
2019-03-18T16:49:46.069Z,3.00
2019-03-18T16:52:15.846Z,2.20
2019-03-18T16:54:47.877Z,2.40
2019-03-18T16:57:17.512Z,3.00
2019-03-18T16:59:49.003Z,2.80
2019-03-18T17:02:18.748Z,3.80
2019-03-18T17:04:49.039Z,2.73
2019-03-18T17:07:18.781Z,3.10
2019-03-18T17:09:48.797Z,2.37
2019-03-18T17:12:18.503Z,2.97
2019-03-18T17:14:48.795Z,2.93
2019-03-18T17:17:18.751Z,2.50
2019-03-18T17:19:48.517Z,3.37
2019-03-18T17:22:18.382Z,2.77
2019-03-18T17:24:49.280Z,2.43
2019-03-18T17:27:19.019Z,2.73
2019-03-18T17:29:48.674Z,2.43
2019-03-18T17:32:18.330Z,3.37
2019-03-18T17:34:47.960Z,2.37
2019-03-18T17:37:18.068Z,1.77
2019-03-18T17:39:48.804Z,2.63
2019-03-18T17:42:18.447Z,2.17
2019-03-18T17:44:49.407Z,3.20
2019-03-18T17:47:19.105Z,2.77
2019-03-18T17:49:48.806Z,2.70
2019-03-18T17:52:19.099Z,2.90
2019-03-18T17:54:49.455Z,3.10
2019-03-18T17:57:19.123Z,2.50
2019-03-18T17:59:49.346Z,3.70
2019-03-18T18:02:18.948Z,4.67
2019-03-18T18:04:49.350Z,3.33
2019-03-18T18:07:19.052Z,3.30
2019-03-18T18:09:49.183Z,2.83
2019-03-18T18:12:18.969Z,3.73
2019-03-18T18:14:48.928Z,3.77
2019-03-18T18:17:18.522Z,3.60
2019-03-18T18:19:48.255Z,4.00
2019-03-18T18:22:18.151Z,3.50
2019-03-18T18:24:48.607Z,3.77
2019-03-18T18:27:19.273Z,3.50
2019-03-18T18:29:49.036Z,3.23
2019-03-18T18:32:18.703Z,3.30
2019-03-18T18:34:48.626Z,4.60
2019-03-18T18:37:18.332Z,4.20
2019-03-18T18:39:48.891Z,4.33
2019-03-18T18:42:18.559Z,4.20
2019-03-18T18:44:48.424Z,3.73
2019-03-18T18:47:18.133Z,3.90
2019-03-18T18:49:48.260Z,4.20
2019-03-18T18:52:17.998Z,4.20
2019-03-18T18:54:47.747Z,3.40
2019-03-18T18:57:17.431Z,4.30
2019-03-18T18:59:46.991Z,4.73
2019-03-18T19:02:17.319Z,4.17
2019-03-18T19:04:46.915Z,4.40
2019-03-18T19:07:16.637Z,3.83
2019-03-18T19:09:46.455Z,3.60
2019-03-18T19:12:16.194Z,5.13
2019-03-18T19:14:46.049Z,4.40
2019-03-18T19:17:15.772Z,4.40
2019-03-18T19:19:45.434Z,4.20
2019-03-18T19:22:15.090Z,4.70
2019-03-18T19:24:44.704Z,4.87
2019-03-18T19:27:14.420Z,5.10
2019-03-18T19:29:43.984Z,4.37
2019-03-18T19:32:13.695Z,5.07
2019-03-18T19:34:43.815Z,5.27
2019-03-18T19:37:13.566Z,5.30
2019-03-18T19:39:43.715Z,4.40
2019-03-18T19:42:13.891Z,4.97
2019-03-18T19:44:44.038Z,5.00
2019-03-18T19:47:13.699Z,4.93
2019-03-18T19:49:43.307Z,4.50
2019-03-18T19:52:13.466Z,4.63
2019-03-18T19:54:43.679Z,4.70
2019-03-18T19:57:13.328Z,4.30
2019-03-18T19:59:43.312Z,5.90
2019-03-18T20:02:13.092Z,5.63
2019-03-18T20:04:43.652Z,8.57
2019-03-18T20:07:13.451Z,5.80
2019-03-18T20:09:43.480Z,4.30
2019-03-18T20:12:13.386Z,4.50
2019-03-18T20:14:43.058Z,5.87
2019-03-18T20:17:13.016Z,5.20
2019-03-18T20:19:42.595Z,4.43
2019-03-18T20:22:12.398Z,5.57
2019-03-18T20:24:43.544Z,4.13
2019-03-18T20:27:13.287Z,7.10
2019-03-18T20:29:43.787Z,4.67
2019-03-18T20:32:13.596Z,4.00
2019-03-18T20:34:45.194Z,5.10
2019-03-18T20:37:14.729Z,4.83
2019-03-18T20:39:44.947Z,4.23
2019-03-18T20:42:15.625Z,4.80
2019-03-18T20:44:45.482Z,4.33
2019-03-18T20:47:15.068Z,5.40
2019-03-18T20:49:44.876Z,5.77
2019-03-18T20:52:16.962Z,4.70
2019-03-18T20:54:46.199Z,5.00
2019-03-18T20:57:15.760Z,4.70
2019-03-18T20:59:45.620Z,4.93
2019-03-18T21:02:15.229Z,5.67
2019-03-18T21:04:44.936Z,4.60
2019-03-18T21:07:16.938Z,3.90
2019-03-18T21:09:45.835Z,5.50
2019-03-18T21:12:15.407Z,4.80
2019-03-18T21:14:45.454Z,4.40
2019-03-18T21:17:15.119Z,4.27
2019-03-18T21:19:45.282Z,4.50
2019-03-18T21:22:15.079Z,4.77
2019-03-18T21:24:44.829Z,4.00
2019-03-18T21:27:14.498Z,4.80
2019-03-18T21:29:44.148Z,4.37
2019-03-18T21:37:32.363Z,4.10
2019-03-18T21:40:01.898Z,4.40
2019-03-18T21:42:31.578Z,4.07
2019-03-18T21:45:01.211Z,4.30
2019-03-18T21:47:30.866Z,4.50
2019-03-18T21:50:00.451Z,4.17
2019-03-18T21:52:30.113Z,4.30
2019-03-18T21:55:00.148Z,4.07
2019-03-18T21:57:29.823Z,5.03
2019-03-18T21:59:59.372Z,4.90
2019-03-18T22:02:28.982Z,5.10
2019-03-18T22:04:58.495Z,4.90
2019-03-18T22:07:28.116Z,6.30
2019-03-18T22:09:57.676Z,5.43
2019-03-18T22:12:27.371Z,5.27
2019-03-18T22:14:56.872Z,5.40
2019-03-18T22:17:26.539Z,5.80
2019-03-18T22:20:01.393Z,5.60
2019-03-18T22:22:31.019Z,5.17
2019-03-18T22:25:01.594Z,4.90
2019-03-18T22:27:31.332Z,4.97
2019-03-18T22:30:00.862Z,5.00
2019-03-18T22:32:30.509Z,5.13
2019-03-18T22:35:00.029Z,5.97
2019-03-18T22:37:29.665Z,5.67
2019-03-18T22:39:59.210Z,5.47
2019-03-18T22:42:28.955Z,5.27
2019-03-18T22:44:58.800Z,6.30
2019-03-18T22:47:28.452Z,4.73
2019-03-18T22:49:58.036Z,5.80
2019-03-18T22:52:27.703Z,5.83
2019-03-18T22:54:57.570Z,6.10
2019-03-18T22:57:29.323Z,5.20
2019-03-18T22:59:58.862Z,5.20
2019-03-18T23:02:28.543Z,4.93
2019-03-18T23:04:58.077Z,5.97
2019-03-18T23:07:27.750Z,5.90
2019-03-18T23:09:57.263Z,6.40
2019-03-18T23:12:26.920Z,8.70
2019-03-18T23:14:56.571Z,7.00
2019-03-18T23:17:26.243Z,7.40
2019-03-18T23:19:55.791Z,5.97
2019-03-18T23:22:25.329Z,7.00
2019-03-18T23:24:54.980Z,6.87
2019-03-18T23:27:24.601Z,6.47
2019-03-18T23:29:54.324Z,6.70
2019-03-18T23:32:23.833Z,5.80
2019-03-18T23:34:53.448Z,5.93
2019-03-18T23:37:23.400Z,5.80
2019-03-18T23:39:53.040Z,5.47
2019-03-18T23:42:22.575Z,5.73
2019-03-18T23:44:52.247Z,5.40
2019-03-18T23:47:21.780Z,6.30
2019-03-18T23:49:51.351Z,5.40
2019-03-18T23:52:21.212Z,5.53
2019-03-18T23:54:51.022Z,6.73
2019-03-18T23:57:20.579Z,5.50
2019-03-18T23:59:50.228Z,5.80
